Time;durP1;ratioP1;P1;durP2;ratioP2;P2;SDS_P1;SDS_P2;PMS_P1;PMS_P2;Temp;Humidity;BMP_temperature;BMP_pressure;BME280_temperature;BME280_humidity;BME280_pressure;Samples;Min_cycle;Max_cycle;Signal;HPM_P1;HPM_P2
2022/07/03 00:00:29;;;;;;;5.70;1.92;;;15.00;99.90;;;;;;4936122;29;20408;-93
2022/07/03 00:02:54;;;;;;;4.05;1.88;;;14.90;99.90;;;;;;4936008;29;20024;-94
2022/07/03 00:05:20;;;;;;;5.05;2.00;;;14.90;99.90;;;;;;4935583;29;20020;-93
2022/07/03 00:07:46;;;;;;;7.13;2.05;;;14.90;99.90;;;;;;4936748;29;20162;-94
2022/07/03 00:10:12;;;;;;;5.53;2.08;;;15.00;99.90;;;;;;4936138;29;20106;-92
2022/07/03 00:12:38;;;;;;;5.55;2.05;;;15.00;99.90;;;;;;4935464;29;20652;-94
2022/07/03 00:15:04;;;;;;;4.40;2.10;;;15.00;99.90;;;;;;4950469;29;20023;-94
2022/07/03 00:17:30;;;;;;;8.50;2.13;;;15.00;99.90;;;;;;4934502;29;20080;-93
2022/07/03 00:19:56;;;;;;;5.60;2.00;;;15.00;99.90;;;;;;4935597;29;20122;-91
2022/07/03 00:22:24;;;;;;;4.18;1.73;;;15.00;99.90;;;;;;4950869;29;20516;-93
2022/07/03 00:24:58;;;;;;;4.38;1.95;;;14.90;99.90;;;;;;4936313;29;20112;-92
2022/07/03 00:27:25;;;;;;;9.13;2.53;;;14.80;99.90;;;;;;4937668;29;20036;-92
2022/07/03 00:29:53;;;;;;;6.55;2.10;;;14.80;99.90;;;;;;4936350;29;20027;-92
2022/07/03 00:32:23;;;;;;;3.97;1.95;;;14.70;99.90;;;;;;4936351;29;20024;-84
2022/07/03 00:34:52;;;;;;;5.57;2.05;;;14.70;99.90;;;;;;4936651;29;20031;-91
2022/07/03 00:37:19;;;;;;;5.22;1.90;;;14.70;99.90;;;;;;4937305;29;20020;-86
2022/07/03 00:39:45;;;;;;;3.45;2.10;;;14.70;99.90;;;;;;4937176;29;20046;-92
2022/07/03 00:42:12;;;;;;;4.95;2.10;;;14.70;99.90;;;;;;4935769;29;20115;-92
2022/07/03 00:44:44;;;;;;;6.18;2.33;;;14.60;99.90;;;;;;4936562;29;20895;-94
2022/07/03 00:47:11;;;;;;;6.53;2.10;;;14.60;99.90;;;;;;4939346;29;20028;-94
2022/07/03 00:49:39;;;;;;;4.90;2.20;;;14.60;99.90;;;;;;4938575;29;20051;-94
2022/07/03 00:52:05;;;;;;;3.63;1.95;;;14.50;99.90;;;;;;4941850;29;20388;-95
2022/07/03 00:54:34;;;;;;;3.65;2.10;;;14.50;99.90;;;;;;4939571;29;20031;-94
2022/07/03 00:57:03;;;;;;;5.72;2.00;;;14.40;99.90;;;;;;4940753;29;20031;-94
2022/07/03 00:59:28;;;;;;;;;;;14.40;99.90;;;;;;4941323;29;20036;-94
2022/07/03 01:02:04;;;;;;;6.32;2.08;;;14.40;99.90;;;;;;4938453;29;19906;-93
2022/07/03 01:04:36;;;;;;;4.13;2.10;;;14.40;99.90;;;;;;4939227;29;20031;-95
2022/07/03 01:07:06;;;;;;;6.30;2.10;;;14.30;99.90;;;;;;4956554;29;20031;-94
2022/07/03 01:10:22;;;;;;;3.97;1.83;;;14.30;99.90;;;;;;4946482;29;20137;-93
2022/07/03 01:13:11;;;;;;;5.22;2.30;;;14.30;99.90;;;;;;4904334;29;20051;-95
2022/07/03 01:15:42;;;;;;;6.88;2.28;;;14.40;99.90;;;;;;4951121;29;20031;-92
2022/07/03 01:18:22;;;;;;;5.97;2.60;;;;;;;;;;4958553;28;20032;-85
2022/07/03 01:20:58;;;;;;;5.22;2.38;;;14.40;99.90;;;;;;4974321;28;20031;-83
2022/07/03 01:23:41;;;;;;;5.97;2.13;;;14.30;99.90;;;;;;4958696;28;20044;-84
2022/07/03 01:26:09;;;;;;;17.58;2.50;;;14.20;99.90;;;;;;4958780;29;20046;-88
2022/07/03 01:28:40;;;;;;;5.85;2.22;;;14.10;99.90;;;;;;4954739;29;20028;-93
2022/07/03 01:31:08;;;;;;;4.38;2.30;;;14.00;99.90;;;;;;4947112;29;20032;-93
2022/07/03 01:33:35;;;;;;;;;;;14.00;99.90;;;;;;4941298;29;20059;-94
2022/07/03 01:36:00;;;;;;;6.82;2.25;;;14.00;99.90;;;;;;4941707;29;19918;-94
2022/07/03 01:38:31;;;;;;;5.57;2.58;;;14.00;99.90;;;;;;4957930;29;20028;-94
2022/07/03 01:40:58;;;;;;;9.57;2.30;;;14.00;99.90;;;;;;4944322;29;20090;-92
2022/07/03 01:43:36;;;;;;;5.97;2.30;;;13.90;99.90;;;;;;4947571;29;20030;-94
2022/07/03 01:46:03;;;;;;;7.93;2.70;;;13.90;99.90;;;;;;4944042;29;20036;-94
2022/07/03 01:48:30;;;;;;;6.82;2.60;;;13.90;99.90;;;;;;4942375;29;20043;-93
2022/07/03 01:50:57;;;;;;;5.60;2.30;;;13.80;99.90;;;;;;4959492;29;20032;-94
2022/07/03 01:53:25;;;;;;;3.65;2.10;;;13.90;99.90;;;;;;4940267;29;20071;-96
2022/07/03 01:55:55;;;;;;;5.15;2.00;;;13.80;99.90;;;;;;4947415;29;20024;-92
2022/07/03 01:58:21;;;;;;;5.38;2.00;;;13.80;99.90;;;;;;4949651;29;20019;-93
2022/07/03 02:01:08;;;;;;;5.60;2.10;;;13.80;99.90;;;;;;4968078;29;20036;-92
2022/07/03 02:03:35;;;;;;;6.00;2.03;;;13.80;99.90;;;;;;4953090;29;20086;-93
2022/07/03 02:06:23;;;;;;;4.53;1.98;;;13.80;99.90;;;;;;4952990;29;20035;-96
2022/07/03 02:09:10;;;;;;;5.32;2.20;;;13.70;99.90;;;;;;4953611;29;20488;-84
2022/07/03 02:11:43;;;;;;;4.53;2.03;;;13.80;99.90;;;;;;4953446;29;20385;-92
2022/07/03 02:14:22;;;;;;;7.80;1.80;;;13.80;99.90;;;;;;4951264;29;20035;-95
2022/07/03 02:17:30;;;;;;;6.60;2.03;;;13.80;99.90;;;;;;4948302;29;20098;-90
2022/07/03 02:20:02;;;;;;;4.72;2.20;;;13.70;99.90;;;;;;4950665;29;20488;-92
2022/07/03 02:22:36;;;;;;;4.50;1.80;;;13.70;99.90;;;;;;4948727;29;20088;-94
2022/07/03 02:25:34;;;;;;;7.70;1.80;;;13.70;99.90;;;;;;4949651;29;20028;-95
2022/07/03 02:28:04;;;;;;;5.72;1.98;;;13.60;99.90;;;;;;4949775;29;20042;-95
2022/07/03 02:30:33;;;;;;;3.72;2.00;;;13.50;99.90;;;;;;4951631;29;20027;-93
2022/07/03 02:33:02;;;;;;;5.80;2.10;;;13.50;99.90;;;;;;4951728;29;20079;-94
2022/07/03 02:35:30;;;;;;;7.25;2.15;;;13.50;99.90;;;;;;4950335;29;20087;-92
2022/07/03 02:38:19;;;;;;;6.15;1.90;;;13.40;99.90;;;;;;4952585;29;20004;-94
2022/07/03 02:40:56;;;;;;;6.38;1.98;;;13.40;99.90;;;;;;4952024;29;20046;-93
2022/07/03 02:43:47;;;;;;;4.37;2.00;;;13.40;99.90;;;;;;4962790;29;20020;-95
2022/07/03 02:46:51;;;;;;;5.25;1.80;;;13.40;99.90;;;;;;4949376;29;20028;-92
2022/07/03 02:49:16;;;;;;;6.90;2.72;;;13.40;99.90;;;;;;4955684;29;20036;-90
2022/07/03 02:51:48;;;;;;;5.70;1.90;;;13.40;99.90;;;;;;4954391;29;20088;-93
2022/07/03 02:54:15;;;;;;;4.22;1.85;;;13.30;99.90;;;;;;4954732;29;20032;-95
2022/07/03 02:57:01;;;;;;;5.55;1.90;;;13.40;99.90;;;;;;4948668;29;20055;-94
2022/07/03 02:59:45;;;;;;;4.70;1.40;;;13.30;99.90;;;;;;4947853;29;20083;-91
2022/07/03 03:02:36;;;;;;;5.13;1.70;;;13.30;99.90;;;;;;4945629;29;20091;-92
2022/07/03 03:05:14;;;;;;;4.57;1.60;;;13.30;99.90;;;;;;4949133;29;20060;-92
2022/07/03 03:08:19;;;;;;;7.43;3.45;;;13.30;99.90;;;;;;4947979;29;20024;-93
2022/07/03 03:10:47;;;;;;;3.70;1.90;;;13.20;99.90;;;;;;4948182;29;20466;-91
2022/07/03 03:13:19;;;;;;;3.03;1.70;;;13.20;99.90;;;;;;4946526;29;20115;-93
2022/07/03 03:16:05;;;;;;;3.92;1.92;;;13.20;99.90;;;;;;4963939;29;20056;-93
2022/07/03 03:18:36;;;;;;;4.07;1.70;;;13.20;99.90;;;;;;4944684;29;20032;-94
2022/07/03 03:21:03;;;;;;;5.00;1.73;;;13.10;99.90;;;;;;4947076;29;20035;-94
2022/07/03 03:23:48;;;;;;;6.20;1.92;;;13.10;99.90;;;;;;4966035;29;20020;-90
2022/07/03 03:26:19;;;;;;;4.00;1.60;;;13.00;99.90;;;;;;4954569;29;20027;-91
2022/07/03 03:28:44;;;;;;;3.75;1.90;;;12.90;99.90;;;;;;4953459;29;20510;-86
2022/07/03 03:31:11;;;;;;;5.85;1.90;;;13.00;99.90;;;;;;4952604;29;20032;-86
2022/07/03 03:33:41;;;;;;;4.35;1.67;;;12.90;99.90;;;;;;4952753;29;20031;-88
2022/07/03 03:36:10;;;;;;;4.53;1.90;;;12.90;99.90;;;;;;4951061;29;20022;-92
2022/07/03 03:38:39;;;;;;;7.07;1.90;;;12.80;99.90;;;;;;4953437;29;20042;-92
2022/07/03 03:41:10;;;;;;;7.22;1.70;;;12.80;99.90;;;;;;4953680;29;20069;-90
2022/07/03 03:43:37;;;;;;;3.85;1.77;;;12.80;99.90;;;;;;4957254;29;20019;-90
2022/07/03 03:46:04;;;;;;;4.88;1.73;;;12.80;99.90;;;;;;4956439;29;20068;-92
2022/07/03 03:48:33;;;;;;;5.70;1.88;;;12.80;99.90;;;;;;4956427;29;20036;-91
2022/07/03 03:51:01;;;;;;;4.97;1.90;;;12.80;99.90;;;;;;4956458;29;20008;-89
2022/07/03 03:53:27;;;;;;;4.60;1.80;;;12.70;99.90;;;;;;4957722;29;20087;-83
2022/07/03 03:56:16;;;;;;;2.00;1.55;;;12.60;99.90;;;;;;4957582;29;20055;-83
2022/07/03 03:58:42;;;;;;;3.40;2.10;;;12.70;99.90;;;;;;4958139;28;20027;-83
2022/07/03 04:01:10;;;;;;;4.40;1.90;;;12.70;99.90;;;;;;4957283;28;20083;-84
2022/07/03 04:03:38;;;;;;;5.05;2.00;;;12.70;99.90;;;;;;4956777;29;20011;-83
2022/07/03 04:06:19;;;;;;;4.35;1.50;;;12.70;99.90;;;;;;4955077;28;20070;-88
2022/07/03 04:08:45;;;;;;;6.20;1.88;;;12.60;99.90;;;;;;4969601;29;20045;-89
2022/07/03 04:11:11;;;;;;;3.45;1.70;;;12.60;99.90;;;;;;4951909;29;20193;-90
2022/07/03 04:13:38;;;;;;;1.63;1.45;;;12.60;99.90;;;;;;4950577;29;20031;-92
2022/07/03 04:16:05;;;;;;;4.35;1.60;;;12.60;99.90;;;;;;4953011;29;20631;-90
2022/07/03 04:18:30;;;;;;;5.70;1.77;;;12.60;99.90;;;;;;4954034;29;20024;-92
2022/07/03 04:21:14;;;;;;;5.82;1.73;;;12.60;99.90;;;;;;4954081;29;20051;-87
2022/07/03 04:23:43;;;;;;;5.38;1.90;;;12.50;99.90;;;;;;4959568;29;20131;-89
2022/07/03 04:26:09;;;;;;;4.18;1.60;;;12.50;99.90;;;;;;4958653;29;20028;-93
2022/07/03 04:28:35;;;;;;;2.70;1.48;;;12.50;99.90;;;;;;4958140;29;20039;-90
2022/07/03 04:31:00;;;;;;;2.65;1.77;;;12.50;99.90;;;;;;4961904;29;20059;-87
2022/07/03 04:33:26;;;;;;;7.35;1.77;;;12.60;99.90;;;;;;4962588;29;20008;-88
2022/07/03 04:35:52;;;;;;;3.60;1.75;;;12.40;99.90;;;;;;4976542;29;20024;-87
2022/07/03 04:38:18;;;;;;;4.47;1.88;;;12.40;99.90;;;;;;4961400;28;20015;-83
2022/07/03 04:40:44;;;;;;;5.78;2.10;;;12.50;99.90;;;;;;4962180;28;20126;-89
2022/07/03 04:43:09;;;;;;;4.45;1.90;;;12.40;99.90;;;;;;4962562;28;20043;-92
2022/07/03 04:45:35;;;;;;;7.07;1.75;;;12.40;99.90;;;;;;4962648;28;20016;-90
2022/07/03 04:48:00;;;;;;;6.32;1.95;;;12.50;99.90;;;;;;4960614;29;20016;-88
2022/07/03 04:50:26;;;;;;;2.95;1.70;;;12.50;99.90;;;;;;4962608;29;20079;-90
2022/07/03 04:52:52;;;;;;;4.28;1.88;;;12.60;99.90;;;;;;4959733;29;20055;-88
2022/07/03 04:55:21;;;;;;;3.58;1.77;;;12.60;99.90;;;;;;4961107;29;20131;-94
2022/07/03 04:57:50;;;;;;;5.93;1.77;;;12.60;99.90;;;;;;4961735;29;20020;-92
2022/07/03 05:01:03;;;;;;;3.47;1.92;;;12.60;99.90;;;;;;4976367;28;20051;-90
2022/07/03 05:03:54;;;;;;;4.80;1.90;;;12.50;99.90;;;;;;4961710;28;20032;-83
2022/07/03 05:06:19;;;;;;;5.90;1.90;;;12.60;99.90;;;;;;4961698;28;20036;-83
2022/07/03 05:08:54;;;;;;;4.45;2.00;;;12.60;99.90;;;;;;4961447;29;20023;-88
2022/07/03 05:11:42;;;;;;;6.40;2.10;;;12.60;99.90;;;;;;4961615;29;20026;-83
2022/07/03 05:14:08;;;;;;;4.32;1.90;;;12.60;99.90;;;;;;4937531;29;20091;-84
2022/07/03 05:16:33;;;;;;;7.97;1.70;;;12.60;99.90;;;;;;4936068;29;20056;-85
2022/07/03 05:18:59;;;;;;;3.65;1.90;;;12.70;99.90;;;;;;4940599;29;20040;-82
2022/07/03 05:21:25;;;;;;;6.50;2.17;;;12.70;99.90;;;;;;4938353;29;20023;-83
2022/07/03 05:24:11;;;;;;;6.45;1.80;;;12.80;99.90;;;;;;4938406;29;20056;-84
2022/07/03 05:26:37;;;;;;;5.60;1.83;;;12.80;99.90;;;;;;4941511;29;20020;-83
2022/07/03 05:29:03;;;;;;;4.85;1.95;;;12.80;99.90;;;;;;4924670;29;20059;-87
2022/07/03 05:31:29;;;;;;;7.15;1.80;;;12.90;99.90;;;;;;4920966;29;20025;-82
2022/07/03 05:33:54;;;;;;;5.00;1.70;;;12.90;99.90;;;;;;4923824;29;20048;-82
2022/07/03 05:36:21;;;;;;;7.85;1.88;;;13.00;99.90;;;;;;4922887;29;20389;-82
2022/07/03 05:41:32;;;;;;;7.13;1.77;;;13.10;99.90;;;;;;4925126;29;20128;-82
2022/07/03 05:43:57;;;;;;;6.75;1.88;;;13.20;99.90;;;;;;4905743;29;20048;-82
2022/07/03 05:46:23;;;;;;;7.90;2.00;;;13.20;99.90;;;;;;4943914;29;20523;-90
2022/07/03 05:48:50;;;;;;;6.00;1.67;;;13.30;99.90;;;;;;4943418;29;20052;-82
2022/07/03 05:51:16;;;;;;;3.67;1.70;;;13.30;99.90;;;;;;4943258;29;20055;-86
2022/07/03 05:53:42;;;;;;;8.35;1.90;;;13.40;99.90;;;;;;4955078;29;20031;-86
2022/07/03 05:56:07;;;;;;;10.60;1.90;;;13.40;99.90;;;;;;4946331;29;20075;-88
2022/07/03 05:58:33;;;;;;;9.32;1.70;;;13.50;99.90;;;;;;4947298;29;20032;-82
2022/07/03 06:01:03;;;;;;;2.95;1.35;;;13.60;99.90;;;;;;4952461;29;20118;-85
2022/07/03 06:03:29;;;;;;;5.68;1.77;;;13.70;99.90;;;;;;4947909;29;20047;-82
2022/07/03 06:05:54;;;;;;;4.07;1.48;;;13.80;99.90;;;;;;4945196;29;20063;-83
2022/07/03 06:08:20;;;;;;;9.93;1.58;;;13.80;99.90;;;;;;4934601;29;20473;-85
2022/07/03 06:10:45;;;;;;;4.95;1.77;;;13.90;99.90;;;;;;4934126;29;20477;-89
2022/07/03 06:13:11;;;;;;;5.03;1.40;;;13.90;99.90;;;;;;4935905;29;20035;-90
2022/07/03 06:15:37;;;;;;;7.07;1.73;;;13.90;99.90;;;;;;4935814;29;20034;-89
2022/07/03 06:18:02;;;;;;;8.35;1.67;;;14.00;99.90;;;;;;4937619;29;20034;-91
2022/07/03 06:20:28;;;;;;;6.30;1.58;;;14.10;99.90;;;;;;4934198;29;20114;-84
2022/07/03 06:22:54;;;;;;;4.50;1.42;;;14.10;99.90;;;;;;4936002;29;20540;-86
2022/07/03 06:25:20;;;;;;;8.48;1.70;;;14.20;99.90;;;;;;4956068;28;20082;-86
2022/07/03 06:27:46;;;;;;;6.10;1.50;;;14.20;99.90;;;;;;4949818;29;20480;-92
2022/07/03 06:30:12;;;;;;;8.85;1.88;;;14.30;99.90;;;;;;4952336;28;20110;-92
2022/07/03 06:32:38;;;;;;;12.57;1.90;;;14.30;99.90;;;;;;4958922;28;20720;-87
2022/07/03 06:35:04;;;;;;;7.38;1.63;;;14.40;99.90;;;;;;4968671;28;20019;-85
2022/07/03 06:37:30;;;;;;;10.93;1.77;;;14.50;99.90;;;;;;4964587;28;20054;-83
2022/07/03 06:39:56;;;;;;;10.18;1.65;;;14.50;99.90;;;;;;4959091;28;20020;-82
2022/07/03 06:42:21;;;;;;;9.40;1.83;;;14.60;99.90;;;;;;4978802;28;20027;-91
2022/07/03 06:45:14;;;;;;;8.65;1.73;;;14.70;99.90;;;;;;4995766;28;20019;-82
2022/07/03 06:47:40;;;;;;;9.80;1.75;;;14.70;99.90;;;;;;4982134;28;20439;-81
2022/07/03 06:51:04;;;;;;;7.78;1.80;;;14.80;99.90;;;;;;4992092;28;20062;-82
2022/07/03 06:53:39;;;;;;;9.50;1.98;;;14.90;99.90;;;;;;4970727;28;20215;-82
2022/07/03 06:56:04;;;;;;;10.75;1.88;;;14.80;99.90;;;;;;4978291;28;20031;-81
2022/07/03 06:58:30;;;;;;;9.35;1.67;;;14.80;99.90;;;;;;4966164;29;20070;-87
2022/07/03 07:00:56;;;;;;;8.32;2.15;;;14.90;99.90;;;;;;4964949;29;20023;-91
2022/07/03 07:03:21;;;;;;;9.93;1.50;;;15.10;99.90;;;;;;4964088;29;20119;-83
2022/07/03 07:05:47;;;;;;;13.23;2.42;;;15.10;99.90;;;;;;4954494;29;20027;-90
2022/07/03 07:08:12;;;;;;;10.80;1.70;;;15.10;99.90;;;;;;4966691;29;20542;-88
2022/07/03 07:10:38;;;;;;;12.23;1.88;;;15.10;99.90;;;;;;4960772;29;20111;-81
2022/07/03 07:13:04;;;;;;;7.65;1.85;;;15.20;99.90;;;;;;4965264;29;20065;-91
2022/07/03 07:15:29;;;;;;;7.60;1.50;;;15.30;99.90;;;;;;4956494;29;20373;-83
2022/07/03 07:17:55;;;;;;;6.65;1.52;;;15.30;99.90;;;;;;4959534;29;20035;-82
2022/07/03 07:20:21;;;;;;;8.50;1.65;;;15.40;99.90;;;;;;4925851;29;20032;-88
2022/07/03 07:22:46;;;;;;;9.02;1.50;;;15.40;99.90;;;;;;4941055;29;20034;-82
2022/07/03 07:25:12;;;;;;;15.73;2.15;;;15.40;99.90;;;;;;4968617;28;20089;-85
2022/07/03 07:27:37;;;;;;;9.65;1.83;;;15.40;99.90;;;;;;4980667;28;20031;-82
2022/07/03 07:30:03;;;;;;;7.55;1.48;;;15.40;99.90;;;;;;4986521;28;20057;-81
2022/07/03 07:32:29;;;;;;;6.43;1.58;;;15.40;99.90;;;;;;4984880;28;20014;-82
2022/07/03 07:34:55;;;;;;;4.65;1.50;;;15.50;99.90;;;;;;4983993;28;20027;-84
2022/07/03 07:37:21;;;;;;;6.60;1.60;;;15.60;99.90;;;;;;4987952;28;20083;-80
2022/07/03 07:39:46;;;;;;;6.82;1.73;;;15.70;99.90;;;;;;4988660;28;20070;-81
2022/07/03 07:42:13;;;;;;;5.00;1.25;;;15.90;99.90;;;;;;4989213;28;20031;-82
2022/07/03 07:44:38;;;;;;;9.20;1.60;;;15.90;99.90;;;;;;4990066;28;20030;-81
2022/07/03 07:47:04;;;;;;;8.68;1.85;;;16.00;99.90;;;;;;4989860;28;20034;-82
2022/07/03 07:49:30;;;;;;;8.02;2.28;;;15.90;99.90;;;;;;4989317;28;20003;-82
2022/07/03 07:51:55;;;;;;;6.70;1.30;;;15.90;99.90;;;;;;4988439;28;20030;-81
2022/07/03 07:54:22;;;;;;;9.48;1.63;;;16.00;99.90;;;;;;4976358;28;20024;-79
2022/07/03 07:56:47;;;;;;;11.32;1.60;;;16.10;99.90;;;;;;4957880;28;20027;-80
2022/07/03 07:59:13;;;;;;;7.70;1.50;;;16.20;99.90;;;;;;4979049;28;20239;-79
2022/07/03 08:07:07;;;;;;;6.28;1.75;;;16.70;99.90;;;;;;4951920;29;20031;-88
2022/07/03 08:09:33;;;;;;;12.00;1.52;;;16.80;99.90;;;;;;4949406;29;20024;-82
2022/07/03 08:11:58;;;;;;;4.38;1.40;;;16.90;99.90;;;;;;4947034;28;20055;-85
2022/07/03 08:14:24;;;;;;;6.57;1.38;;;16.80;99.90;;;;;;4945483;29;20623;-92
2022/07/03 08:16:50;;;;;;;6.15;1.30;;;16.90;99.90;;;;;;4941790;29;20028;-94
2022/07/03 08:19:16;;;;;;;6.55;1.48;;;17.00;99.90;;;;;;4945053;28;20032;-92
2022/07/03 08:21:43;;;;;;;4.38;1.30;;;17.20;99.90;;;;;;4970879;28;20209;-91
2022/07/03 08:24:10;;;;;;;5.38;1.30;;;17.30;99.90;;;;;;4946417;29;20024;-91
2022/07/03 08:26:36;;;;;;;6.78;1.73;;;17.10;99.90;;;;;;4945969;29;20395;-90
2022/07/03 08:29:02;;;;;;;6.32;1.45;;;16.80;99.90;;;;;;4948233;29;20024;-93
2022/07/03 08:31:28;;;;;;;8.02;1.50;;;16.90;99.90;;;;;;4960579;29;20040;-83
2022/07/03 08:33:53;;;;;;;4.03;1.08;;;16.80;99.90;;;;;;4963563;28;20031;-93
2022/07/03 08:36:19;;;;;;;8.23;1.27;;;16.90;99.90;;;;;;4946326;28;20102;-94
2022/07/03 08:38:45;;;;;;;7.03;1.30;;;17.00;99.90;;;;;;4953282;29;20034;-85
2022/07/03 08:41:12;;;;;;;4.70;0.98;;;17.10;99.90;;;;;;4945009;29;20067;-86
2022/07/03 08:43:41;;;;;;;4.47;1.05;;;17.20;99.90;;;;;;4948413;28;20498;-82
2022/07/03 08:46:09;;;;;;;2.47;1.05;;;17.40;99.90;;;;;;4945876;29;20024;-84
2022/07/03 08:48:36;;;;;;;4.13;1.58;;;17.50;99.90;;;;;;4948892;28;20016;-81
2022/07/03 08:51:03;;;;;;;4.38;0.90;;;17.50;99.90;;;;;;4949291;28;20051;-84
2022/07/03 08:53:29;;;;;;;3.83;1.00;;;17.50;99.90;;;;;;4947866;29;20024;-87
2022/07/03 08:55:55;;;;;;;4.15;1.20;;;17.60;99.90;;;;;;4945033;28;20034;-92
2022/07/03 08:58:24;;;;;;;3.17;1.00;;;17.60;99.90;;;;;;4945152;28;20020;-85
2022/07/03 09:00:50;;;;;;;6.00;1.10;;;17.60;99.90;;;;;;4946638;29;20027;-92
2022/07/03 09:03:16;;;;;;;6.35;1.17;;;17.30;99.90;;;;;;4937623;29;20078;-89
2022/07/03 09:05:44;;;;;;;5.68;1.10;;;17.30;99.90;;;;;;4946548;29;20098;-90
2022/07/03 09:08:10;;;;;;;2.35;1.10;;;17.40;99.90;;;;;;4950529;29;20058;-95
2022/07/03 09:10:36;;;;;;;4.65;1.20;;;17.50;99.90;;;;;;4948063;29;20023;-88
2022/07/03 09:13:02;;;;;;;4.68;1.00;;;17.50;99.90;;;;;;4957861;29;20067;-80
2022/07/03 09:15:28;;;;;;;3.78;1.00;;;17.80;99.90;;;;;;4958619;29;20012;-80
2022/07/03 09:18:05;;;;;;;2.67;0.82;;;18.10;99.90;;;;;;4953544;29;20043;-80
2022/07/03 09:20:37;;;;;;;2.90;0.80;;;18.40;99.90;;;;;;4956626;29;20039;-87
2022/07/03 09:23:42;;;;;;;3.85;0.90;;;18.30;99.90;;;;;;4948072;29;20028;-90
2022/07/03 09:26:13;;;;;;;5.78;1.05;;;17.90;99.90;;;;;;4939638;29;20043;-91
2022/07/03 09:28:45;;;;;;;6.07;1.20;;;18.00;99.90;;;;;;4943908;29;20397;-91
2022/07/03 09:31:12;;;;;;;3.72;1.02;;;18.30;99.90;;;;;;4939590;29;20032;-91
2022/07/03 09:34:07;;;;;;;6.07;0.70;;;18.20;99.90;;;;;;4952097;29;20094;-90
2022/07/03 09:36:40;;;;;;;5.90;1.20;;;18.40;99.90;;;;;;4927794;29;20036;-87
2022/07/03 09:39:24;;;;;;;4.18;0.90;;;18.40;99.90;;;;;;4942265;29;20046;-92
2022/07/03 09:42:04;;;;;;;2.53;1.10;;;18.10;99.90;;;;;;4944323;29;20020;-94
2022/07/03 09:44:36;;;;;;;3.38;0.80;;;18.20;99.90;;;;;;4940233;28;20030;-92
2022/07/03 09:47:22;;;;;;;3.13;0.75;;;18.50;99.90;;;;;;4944348;28;20031;-92
2022/07/03 09:50:00;;;;;;;1.20;0.60;;;18.80;99.90;;;;;;4941925;28;20106;-89
2022/07/03 09:52:40;;;;;;;3.88;1.27;;;19.20;99.90;;;;;;4946011;28;20508;-89
2022/07/03 09:55:08;;;;;;;2.03;1.15;;;19.00;99.90;;;;;;4952238;28;20031;-91
2022/07/03 09:57:50;;;;;;;1.48;0.60;;;18.90;99.90;;;;;;4975798;28;20047;-93
2022/07/03 10:00:17;;;;;;;2.75;0.90;;;19.00;99.90;;;;;;4954872;29;20043;-92
2022/07/03 10:03:05;;;;;;;2.47;0.88;;;19.00;99.90;;;;;;4959813;29;20023;-85
2022/07/03 10:05:37;;;;;;;3.85;0.80;;;18.90;99.90;;;;;;4962372;28;20015;-87
2022/07/03 10:08:07;;;;;;;2.97;0.88;;;19.10;99.90;;;;;;4955592;28;20050;-92
2022/07/03 10:10:36;;;;;;;2.78;0.77;;;19.30;99.90;;;;;;4963549;28;20027;-94
2022/07/03 10:13:03;;;;;;;3.85;1.10;;;19.30;99.90;;;;;;4960175;28;20031;-93
2022/07/03 10:15:38;;;;;;;3.65;0.80;;;19.40;99.90;;;;;;4960528;28;20174;-85
2022/07/03 10:18:06;;;;;;;4.45;1.10;;;19.30;99.90;;;;;;4960611;28;20388;-92
2022/07/03 10:20:38;;;;;;;4.50;0.98;;;19.30;99.90;;;;;;4953725;28;20019;-94
2022/07/03 10:23:03;;;;;;;7.63;0.82;;;19.20;99.90;;;;;;4953240;29;20035;-91
2022/07/03 10:25:30;;;;;;;2.80;1.00;;;19.30;99.90;;;;;;4980739;28;20102;-80
2022/07/03 10:27:57;;;;;;;6.45;1.30;;;19.10;99.90;;;;;;4968331;29;20058;-81
2022/07/03 10:30:24;;;;;;;3.70;1.05;;;19.00;99.90;;;;;;4969949;28;20020;-81
2022/07/03 10:32:52;;;;;;;2.47;1.13;;;19.20;99.90;;;;;;4970034;28;20051;-91
2022/07/03 10:35:21;;;;;;;;;;;19.30;99.90;;;;;;4958908;29;20019;-94
2022/07/03 10:38:01;;;;;;;3.17;0.88;;;19.30;99.90;;;;;;4961206;28;19918;-93
2022/07/03 10:46:26;;;;;;;3.17;0.85;;;19.70;99.90;;;;;;4963148;29;20122;-81
2022/07/03 10:48:56;;;;;;;4.15;0.75;;;19.40;99.90;;;;;;4959519;28;20365;-94
2022/07/03 10:51:23;;;;;;;3.40;0.88;;;19.40;99.90;;;;;;4959088;29;20023;-92
2022/07/03 10:53:49;;;;;;;3.40;0.90;;;19.50;99.90;;;;;;4958000;28;20027;-81
2022/07/03 10:56:16;;;;;;;2.88;0.70;;;19.70;99.90;;;;;;4954692;28;20031;-92
2022/07/03 10:58:58;;;;;;;2.70;0.90;;;19.80;99.90;;;;;;4956062;28;20034;-94
2022/07/03 11:01:28;;;;;;;2.22;0.90;;;19.80;99.90;;;;;;4956017;28;20027;-81
2022/07/03 11:03:59;;;;;;;2.80;0.70;;;19.90;99.90;;;;;;4952524;28;20543;-89
2022/07/03 11:06:54;;;;;;;2.30;0.70;;;;;;;;;;4953253;28;20050;-81
2022/07/03 11:09:19;;;;;;;1.33;0.65;;;20.20;99.90;;;;;;4917887;29;20040;-81
2022/07/03 11:11:57;;;;;;;1.50;0.95;;;20.20;99.90;;;;;;4954114;29;20106;-91
2022/07/03 11:14:30;;;;;;;1.35;0.65;;;20.20;95.80;;;;;;4952859;28;20086;-93
2022/07/03 11:17:17;;;;;;;2.47;0.47;;;20.50;98.90;;;;;;4956309;28;20039;-81
2022/07/03 11:19:43;;;;;;;1.13;0.82;;;20.60;92.20;;;;;;4961222;28;20019;-83
2022/07/03 11:22:18;;;;;;;1.98;1.67;;;20.70;93.70;;;;;;4956482;28;20407;-87
2022/07/03 11:24:52;;;;;;;2.63;0.70;;;20.90;95.70;;;;;;4950970;29;20027;-81
2022/07/03 11:27:20;;;;;;;5.07;0.77;;;21.00;95.80;;;;;;4960096;28;20463;-82
2022/07/03 11:29:52;;;;;;;4.63;3.45;;;;;;;;;;4964598;28;20031;-82
2022/07/03 11:32:37;;;;;;;6.78;2.78;;;;;;;;;;4960357;28;20855;-81
2022/07/03 11:35:03;;;;;;;7.07;2.28;;;20.90;91.50;;;;;;4957519;29;20024;-82
2022/07/03 11:37:31;;;;;;;3.55;1.00;;;20.30;96.90;;;;;;4958494;29;20051;-81
2022/07/03 11:40:02;;;;;;;3.00;1.20;;;20.30;95.50;;;;;;4961362;28;20110;-82
2022/07/03 11:42:34;;;;;;;6.13;0.90;;;20.50;97.20;;;;;;4963025;28;20113;-85
2022/07/03 11:45:00;;;;;;;5.57;2.13;;;20.50;94.10;;;;;;4961510;28;20031;-82
2022/07/03 11:47:27;;;;;;;2.75;0.90;;;20.60;94.60;;;;;;4960850;28;20121;-83
2022/07/03 11:49:52;;;;;;;7.03;0.98;;;20.60;92.90;;;;;;4967666;28;20110;-82
2022/07/03 11:52:33;;;;;;;3.58;0.82;;;20.70;93.00;;;;;;4966901;29;20051;-81
2022/07/03 11:54:58;;;;;;;2.35;0.90;;;20.70;92.10;;;;;;4968070;28;20047;-82
2022/07/03 11:57:24;;;;;;;5.13;1.00;;;20.50;93.00;;;;;;4966704;29;20027;-82
2022/07/03 11:59:54;;;;;;;4.40;1.00;;;20.50;94.10;;;;;;4962513;29;20027;-94
2022/07/03 12:02:19;;;;;;;2.88;0.90;;;20.50;95.00;;;;;;4959422;28;20027;-95
2022/07/03 12:04:45;;;;;;;2.33;0.80;;;20.60;94.20;;;;;;4963329;29;20113;-81
2022/07/03 12:07:10;;;;;;;5.13;1.17;;;20.70;92.40;;;;;;4974717;28;20372;-82
2022/07/03 12:09:37;;;;;;;2.70;0.68;;;20.40;94.00;;;;;;4958444;29;20090;-82
2022/07/03 12:12:03;;;;;;;2.78;0.88;;;20.40;93.30;;;;;;4959413;29;20028;-81
2022/07/03 12:14:43;;;;;;;3.70;1.10;;;20.00;91.10;;;;;;4949157;28;20038;-81
2022/07/03 12:17:13;;;;;;;2.38;0.70;;;20.00;94.00;;;;;;4961999;28;20023;-81
2022/07/03 12:19:45;;;;;;;3.17;0.90;;;20.20;94.10;;;;;;4954395;29;20082;-81
2022/07/03 12:22:11;;;;;;;1.42;0.77;;;;;;;;;;4960578;28;20059;-81
2022/07/03 12:24:36;;;;;;;4.47;0.90;;;20.40;93.70;;;;;;4960365;28;20407;-81
2022/07/03 12:27:04;;;;;;;0.63;0.60;;;;;;;;;;4964356;28;20027;-82
2022/07/03 12:29:30;;;;;;;3.88;0.85;;;;;;;;;;4956283;28;20030;-80
2022/07/03 12:31:57;;;;;;;1.65;0.68;;;;;;;;;;4955851;28;20031;-81
2022/07/03 12:34:23;;;;;;;2.95;0.77;;;;;;;;;;4976717;28;20069;-81
2022/07/03 12:36:56;;;;;;;1.95;0.70;;;20.30;92.20;;;;;;4966214;28;20110;-81
2022/07/03 12:39:24;;;;;;;3.13;1.02;;;19.90;93.40;;;;;;4963040;28;20011;-82
2022/07/03 12:41:50;;;;;;;2.97;0.80;;;19.90;92.60;;;;;;4962253;28;20031;-82
2022/07/03 12:44:20;;;;;;;3.13;0.82;;;19.90;90.70;;;;;;4968322;28;20046;-83
2022/07/03 12:46:47;;;;;;;1.90;0.80;;;20.10;93.50;;;;;;4970168;28;20479;-86
2022/07/03 12:49:13;;;;;;;4.97;0.73;;;20.00;91.10;;;;;;4964936;28;20011;-81
2022/07/03 12:51:43;;;;;;;4.10;0.80;;;20.00;94.10;;;;;;4958125;28;20110;-82
2022/07/03 12:54:11;;;;;;;6.03;0.98;;;20.40;93.40;;;;;;4959605;29;20026;-81
2022/07/03 12:56:37;;;;;;;2.70;0.98;;;20.10;91.70;;;;;;4958518;28;20035;-81
2022/07/03 12:59:18;;;;;;;2.47;0.77;;;20.20;92.70;;;;;;4958820;28;20094;-81
2022/07/03 13:02:01;;;;;;;2.70;0.70;;;20.30;93.90;;;;;;4962792;28;20031;-83
2022/07/03 13:04:50;;;;;;;3.03;0.80;;;20.50;91.50;;;;;;4965684;28;20051;-81
2022/07/03 13:07:16;;;;;;;2.75;1.00;;;20.70;93.80;;;;;;4888176;29;20044;-82
2022/07/03 13:09:43;;;;;;;4.18;1.17;;;20.70;90.60;;;;;;4907223;29;20044;-82
2022/07/03 13:12:22;;;;;;;3.75;1.25;;;20.60;92.10;;;;;;4918131;29;20053;-81
2022/07/03 13:14:58;;;;;;;1.85;0.77;;;20.60;92.40;;;;;;4901868;29;20037;-84
2022/07/03 13:17:43;;;;;;;4.90;1.00;;;20.80;91.70;;;;;;4909555;29;20021;-83
2022/07/03 13:20:09;;;;;;;6.75;1.02;;;21.00;90.70;;;;;;4905192;29;20453;-81
2022/07/03 13:22:35;;;;;;;2.45;0.77;;;20.60;89.80;;;;;;4882249;29;20029;-81